Aeroporto :
LOGIN :

Iscrizione | Disclaimer

   EN    FR    IT 

 










Sommario :    VFR   VFR Marginale   IFR   IFR Intensivo   IFR Molto Intensivo
Visibilità : 
Base nubi : 
>= 8 km
>= 3000ft
5 / 8 km
1000 / 3000 ft
1500m / 5 km
500 / 1000 ft
800 / 1500m
200 / 500 ft
< 800m
< 200 ft
Simboli :   Temporali  Nebbia  Neve Forte  Precipitazioni Forti  Vento > 20 kt
SIGMETs :   Varie  Temporali  Ghiacco  Turbolenza  Onda orograficha  Ceneri Vulcaniche






- Altitudine del aeroporto : 436 ft
- Codice IATA : BTS


LZIB - Bratislava

ULTIMO METAR :
  • 231030Z 27020G32KT 9999 FEW032 BKN080 12/04 Q1020 NOSIG

METARs OBSOLETI :
  • 231000Z 27024KT 9999 FEW032 BKN072 12/04 Q1020 NOSIG
  • 230933Z 26018G29KT 9999 FEW030 BKN072 12/04 Q1021 WS ALL RWY
  • 230900Z 26018KT 9999 FEW024 BKN034 11/03 Q1022 WS ALL RWY NOSIG
  • 230830Z 26015KT 9999 FEW024 BKN075 11/04 Q1022 NOSIG
  • 230800Z 25014KT 9999 FEW024 BKN050 11/04 Q1022 NOSIG

TAF TAF LZIB
Valido dal 23 a 06 ore il 24 a 06 ore UTC


230500Z 2306/2406 22012KT 9999 SCT045 BKN060
TEMPO 2306/2316 -RA BKN040
BECMG 2308/2310 26018G30KT
TEMPO 2310/2317 27025G37KT
TEMPO 2317/2403 29035G55KT
TEMPO 2323/2404 7000 SHRA BKN030 FEW040TCU



MetMap, La meteo Aeronautica in un colpo d'occhio ! - Copyright ORBIFLY Dicembre 2007 - Disclaimer

ORBIFLY MET'MAP TEAM :

Programmazione e sviluppo : Alexandra Zaïnal
Concezione : Baudouin d'Aumeries
Aiuto per la programmazione : Marc-Olivier Méhu
Supporto tecnico e logistico : Manuel Goepfert
Aiuto per la traduzione : Arnaldo La Scala

Contatto : metmap@orbifly.com




FONTI E CREDITI :

   NOAA